Time;durP1;ratioP1;P1;durP2;ratioP2;P2;SDS_P1;SDS_P2;PMS_P1;PMS_P2;Temp;Humidity;BMP_temperature;BMP_pressure;BME280_temperature;BME280_humidity;BME280_pressure;Samples;Min_cycle;Max_cycle;Signal;HPM_P1;HPM_P2
2023/10/17 00:00:32;;;;;;;0.10;0.10;;;;;;;6.74;100.00;99478.00;5115953;28;20264;-57
2023/10/17 00:03:19;;;;;;;0.10;0.10;;;;;;;6.35;100.00;99482.31;5115760;28;20198;-57
2023/10/17 00:06:06;;;;;;;0.10;0.10;;;;;;;6.06;100.00;99475.63;5115598;28;20346;-57
2023/10/17 00:08:54;;;;;;;0.10;0.10;;;;;;;5.79;100.00;99467.91;5114576;28;20552;-57
2023/10/17 00:11:52;;;;;;;0.10;0.10;;;;;;;5.77;100.00;99479.38;5115577;28;20982;-56
2023/10/17 00:14:46;;;;;;;0.10;0.10;;;;;;;5.89;100.00;99466.63;5115448;28;20545;-57
2023/10/17 00:17:33;;;;;;;0.10;0.10;;;;;;;5.81;100.00;99468.72;5115461;28;20229;-57
2023/10/17 00:20:24;;;;;;;0.10;0.10;;;;;;;5.74;100.00;99473.34;5115504;28;20201;-57
2023/10/17 00:23:14;;;;;;;0.10;0.10;;;;;;;5.74;100.00;99459.34;5113959;28;20264;-56
2023/10/17 00:26:04;;;;;;;0.10;0.10;;;;;;;5.73;100.00;99455.00;5115229;28;20206;-57
2023/10/17 00:28:52;;;;;;;0.10;0.10;;;;;;;5.75;100.00;99454.03;5115385;28;20194;-57
2023/10/17 00:31:39;;;;;;;0.10;0.10;;;;;;;5.72;100.00;99454.16;5114190;28;20308;-57
2023/10/17 00:34:27;;;;;;;0.10;0.10;;;;;;;5.69;100.00;99453.41;5113790;28;20303;-57
2023/10/17 00:37:15;;;;;;;0.10;0.10;;;;;;;5.75;100.00;99442.66;5115161;28;20190;-57
2023/10/17 00:40:13;;;;;;;0.10;0.10;;;;;;;6.27;100.00;99451.94;5115007;28;20206;-56
2023/10/17 00:43:03;;;;;;;0.10;0.10;;;;;;;5.56;100.00;99439.03;5114989;28;20210;-57
2023/10/17 00:45:51;;;;;;;0.10;0.10;;;;;;;5.42;100.00;99445.69;5114702;28;20266;-57
2023/10/17 00:48:39;;;;;;;0.10;0.10;;;;;;;5.25;100.00;99442.00;5114872;28;20190;-57
2023/10/17 00:51:25;;;;;;;0.10;0.10;;;;;;;5.54;100.00;99435.63;5113799;28;20281;-57
2023/10/17 00:54:13;;;;;;;0.10;0.10;;;;;;;5.66;100.00;99436.00;5112495;28;20194;-57
2023/10/17 00:57:05;;;;;;;0.10;0.10;;;;;;;5.87;100.00;99434.28;5114690;28;20182;-57
2023/10/17 00:59:55;;;;;;;0.10;0.10;;;;;;;-144.59;100.00;99434.28;5114520;28;20195;-57
2023/10/17 01:02:46;;;;;;;0.10;0.10;;;;;;;6.37;100.00;99434.00;5114302;28;20202;-57
2023/10/17 01:05:42;;;;;;;0.10;0.10;;;;;;;5.86;100.00;99431.72;5114591;28;20784;-57
2023/10/17 01:08:39;;;;;;;0.10;0.10;;;;;;;5.88;100.00;99429.88;5113338;28;20194;-57
2023/10/17 01:11:27;;;;;;;0.10;0.10;;;;;;;5.87;100.00;99423.75;5114450;28;20193;-57
2023/10/17 01:14:18;;;;;;;0.10;0.10;;;;;;;5.58;100.00;99424.06;5113299;28;20194;-57
2023/10/17 01:17:07;;;;;;;0.10;0.10;;;;;;;5.58;100.00;99424.06;5114269;28;20275;-57
2023/10/17 01:20:07;;;;;;;0.10;0.10;;;;;;;5.33;100.00;99424.19;5114316;28;20182;-56
2023/10/17 01:22:56;;;;;;;0.10;0.10;;;;;;;5.38;100.00;99428.31;5112886;28;20214;-57
2023/10/17 01:25:44;;;;;;;0.10;0.10;;;;;;;5.32;100.00;99430.34;5114204;28;20190;-57
2023/10/17 01:28:31;;;;;;;0.10;0.10;;;;;;;5.31;100.00;99423.41;5114052;28;20677;-57
2023/10/17 01:31:23;;;;;;;0.10;0.10;;;;;;;5.44;100.00;99424.63;5114095;28;20225;-57
2023/10/17 01:34:12;;;;;;;0.10;0.10;;;;;;;5.42;100.00;99424.69;5113773;28;20277;-56
2023/10/17 01:36:59;;;;;;;0.10;0.10;;;;;;;5.51;100.00;99422.63;5114107;28;20194;-56
2023/10/17 01:39:46;;;;;;;0.10;0.10;;;;;;;5.31;100.00;99426.03;5111601;28;20694;-56
2023/10/17 01:42:34;;;;;;;0.10;0.10;;;;;;;5.09;100.00;99429.44;5113620;28;20201;-57
2023/10/17 01:45:23;;;;;;;0.10;0.10;;;;;;;5.59;100.00;99426.63;5112746;28;20676;-56
2023/10/17 01:48:13;;;;;;;0.10;0.10;;;;;;;5.37;100.00;99436.28;5113408;28;20221;-57
2023/10/17 01:51:05;;;;;;;0.10;0.10;;;;;;;5.28;100.00;99429.59;5113865;28;20545;-56
2023/10/17 01:53:53;;;;;;;0.10;0.10;;;;;;;5.51;100.00;99428.72;5112224;28;20194;-57
2023/10/17 01:56:40;;;;;;;0.10;0.10;;;;;;;5.88;100.00;99427.25;5112566;28;20194;-57
2023/10/17 01:59:29;;;;;;;0.10;0.10;;;;;;;5.57;100.00;99424.97;5112636;28;20668;-57
2023/10/17 02:02:15;;;;;;;0.10;0.10;;;;;;;5.36;100.00;99429.31;5112553;28;20586;-57
2023/10/17 02:05:03;;;;;;;0.10;0.10;;;;;;;5.12;100.00;99426.72;5112426;28;20301;-56
2023/10/17 02:07:54;;;;;;;0.10;0.10;;;;;;;5.12;100.00;99426.72;5111844;28;20226;-57
2023/10/17 02:10:41;;;;;;;0.10;0.10;;;;;;;4.97;100.00;99422.03;5112541;28;20190;-57
2023/10/17 02:13:30;;;;;;;0.10;0.10;;;;;;;5.04;100.00;99425.28;5112097;28;20676;-57
2023/10/17 02:16:18;;;;;;;0.10;0.10;;;;;;;5.23;100.00;99443.81;5113497;28;20681;-57
2023/10/17 02:19:07;;;;;;;0.10;0.10;;;;;;;5.08;100.00;99443.47;5112364;28;20197;-57
2023/10/17 02:21:54;;;;;;;0.10;0.10;;;;;;;4.98;100.00;99446.50;5113223;28;20740;-57
2023/10/17 02:24:42;;;;;;;0.10;0.10;;;;;;;5.26;100.00;99449.81;5112109;28;20194;-57
2023/10/17 02:27:30;;;;;;;0.10;0.10;;;;;;;5.24;100.00;99442.91;5112005;28;20213;-57
2023/10/17 02:30:19;;;;;;;0.10;0.10;;;;;;;5.04;100.00;99436.63;5113374;28;20308;-57
2023/10/17 02:33:17;;;;;;;0.10;0.10;;;;;;;5.07;100.00;99414.66;5113147;28;20190;-57
2023/10/17 02:36:08;;;;;;;0.10;0.10;;;;;;;5.43;100.00;99410.63;5113111;28;20194;-57
2023/10/17 02:38:55;;;;;;;0.10;0.10;;;;;;;5.59;100.00;99408.22;5111851;28;20210;-57
2023/10/17 02:41:46;;;;;;;0.10;0.10;;;;;;;5.60;100.00;99428.38;5113161;28;20472;-57
2023/10/17 02:44:33;;;;;;;0.10;0.10;;;;;;;5.30;100.00;99433.00;5112015;28;20661;-56
2023/10/17 02:47:20;;;;;;;0.10;0.10;;;;;;;5.13;100.00;99431.03;5113065;28;20214;-57
2023/10/17 02:50:20;;;;;;;0.10;0.10;;;;;;;4.94;100.00;99426.53;5112008;28;20194;-57
2023/10/17 02:53:09;;;;;;;0.10;0.10;;;;;;;4.99;100.00;99420.19;5111633;28;20190;-57
2023/10/17 02:56:07;;;;;;;0.10;0.10;;;;;;;4.75;100.00;99419.34;5117079;28;20240;-56
2023/10/17 02:59:04;;;;;;;0.10;0.10;;;;;;;4.75;0.00;99419.34;5116031;28;20202;-57
2023/10/17 03:01:55;;;;;;;0.10;0.10;;;;;;;4.97;100.00;99422.03;5115962;28;20190;-57
2023/10/17 03:04:43;;;;;;;0.10;0.10;;;;;;;4.98;100.00;99425.50;5115980;28;20232;-57
2023/10/17 03:07:31;;;;;;;0.10;0.10;;;;;;;4.89;100.00;99421.44;5115735;28;20218;-57
2023/10/17 03:10:23;;;;;;;0.10;0.10;;;;;;;4.71;100.00;99419.47;5116826;28;20190;-56
2023/10/17 03:13:22;;;;;;;0.10;0.10;;;;;;;4.71;100.00;99419.47;5116806;28;20330;-56
2023/10/17 03:16:16;;;;;;;0.10;0.10;;;;;;;-144.59;100.00;99419.47;5116457;28;20315;-57
2023/10/17 03:19:06;;;;;;;0.10;0.10;;;;;;;4.99;100.00;99414.94;5116634;28;20660;-57
2023/10/17 03:21:54;;;;;;;0.10;0.10;;;;;;;4.83;100.00;99416.44;5115544;28;20676;-57
2023/10/17 03:24:43;;;;;;;0.10;0.10;;;;;;;5.03;100.00;99407.81;5114301;28;20190;-57
2023/10/17 03:27:39;;;;;;;0.10;0.10;;;;;;;5.09;100.00;99403.19;5115334;28;20336;-57
2023/10/17 03:30:26;;;;;;;0.10;0.10;;;;;;;5.12;100.00;99402.22;5115386;28;20196;-57
2023/10/17 03:33:15;;;;;;;0.10;0.10;;;;;;;5.09;100.00;99399.69;5116185;28;20198;-57
2023/10/17 03:36:40;;;;;;;0.10;0.10;;;;;;;5.07;100.00;99397.13;5116398;28;20202;-57
2023/10/17 03:39:21;;;;;;;0.10;0.10;;;;;;;5.23;100.00;99384.28;5114872;28;20203;-57
2023/10/17 03:42:11;;;;;;;0.10;0.10;;;;;;;5.37;100.00;99376.72;5116276;28;20190;-57
2023/10/17 03:44:57;;;;;;;0.10;0.10;;;;;;;5.49;100.00;99375.38;5116301;28;20194;-57
2023/10/17 03:47:53;;;;;;;0.10;0.10;;;;;;;5.74;100.00;99376.09;5115985;28;20332;-57
2023/10/17 03:50:48;;;;;;;0.10;0.10;;;;;;;5.60;100.00;99369.72;5116135;28;20208;-57
2023/10/17 03:53:42;;;;;;;0.10;0.10;;;;;;;5.45;100.00;99371.16;5114569;28;20202;-57
2023/10/17 03:56:35;;;;;;;0.10;0.10;;;;;;;5.56;100.00;99370.72;5116083;28;20274;-57
2023/10/17 03:59:33;;;;;;;0.10;0.10;;;;;;;5.86;100.00;99368.63;5115835;28;20206;-57
2023/10/17 04:02:21;;;;;;;0.10;0.10;;;;;;;5.47;100.00;99370.19;5115971;28;20185;-57
2023/10/17 04:05:11;;;;;;;0.10;0.10;;;;;;;5.42;100.00;99371.31;5115659;28;20190;-57
2023/10/17 04:07:58;;;;;;;0.10;0.10;;;;;;;5.23;100.00;99373.78;5114114;28;20218;-57
2023/10/17 04:10:49;;;;;;;0.10;0.10;;;;;;;5.26;100.00;99378.91;5115577;28;20194;-57
2023/10/17 04:13:37;;;;;;;0.10;0.10;;;;;;;5.56;100.00;99376.84;5115659;28;20181;-57
2023/10/17 04:16:33;;;;;;;0.00;0.00;;;;;;;5.49;100.00;99371.88;5115310;28;20243;-57
2023/10/17 04:19:20;;;;;;;0.10;0.10;;;;;;;5.86;100.00;99381.78;5115384;28;20194;-57
2023/10/17 04:22:09;;;;;;;0.10;0.10;;;;;;;5.70;100.00;99385.03;5115281;28;20313;-57
2023/10/17 04:25:20;;;;;;;0.10;0.10;;;;;;;5.46;100.00;99371.09;5115265;28;20203;-56
2023/10/17 04:28:07;;;;;;;0.10;0.10;;;;;;;5.33;100.00;99375.13;5115221;28;20210;-57
2023/10/17 04:30:57;;;;;;;0.10;0.10;;;;;;;5.43;100.00;99386.13;5115238;28;20194;-57
2023/10/17 04:33:47;;;;;;;0.10;0.10;;;;;;;5.51;100.00;99383.22;5114968;28;20218;-57
2023/10/17 04:36:37;;;;;;;0.10;0.10;;;;;;;5.55;100.00;99382.16;5115002;28;20198;-57
2023/10/17 04:39:35;;;;;;;0.10;0.10;;;;;;;5.68;100.00;99383.38;5113418;28;20248;-57
2023/10/17 04:42:33;;;;;;;0.10;0.10;;;;;;;5.39;100.00;99382.75;5114148;28;20199;-57
2023/10/17 04:45:19;;;;;;;0.10;0.10;;;;;;;5.24;100.00;99383.38;5114685;28;20209;-57
2023/10/17 04:48:16;;;;;;;0.10;0.10;;;;;;;5.16;100.00;99383.66;5114435;28;20229;-57
2023/10/17 04:51:19;;;;;;;0.10;0.10;;;;;;;5.30;100.00;99382.25;5114697;28;20198;-57
2023/10/17 04:54:20;;;;;;;0.10;0.10;;;;;;;5.23;100.00;99379.03;5113023;28;20186;-57
2023/10/17 04:57:09;;;;;;;0.10;0.10;;;;;;;5.25;100.00;99386.84;5114755;28;20201;-57
2023/10/17 05:00:09;;;;;;;0.10;0.10;;;;;;;5.13;100.00;99396.91;5114687;28;20222;-57
2023/10/17 05:03:06;;;;;;;0.10;0.10;;;;;;;5.79;100.00;99385.56;5113734;28;20232;-57
2023/10/17 05:06:15;;;;;;;0.10;0.10;;;;;;;5.48;100.00;99386.78;5113426;28;20229;-57
2023/10/17 05:09:26;;;;;;;0.10;0.10;;;;;;;5.48;100.00;99386.78;5113033;28;20217;-57
2023/10/17 06:17:20;;;;;;;0.10;0.10;;;;;;;5.88;100.00;99399.19;5112961;28;20236;-58
2023/10/17 06:20:11;;;;;;;0.10;0.10;;;;;;;5.98;100.00;99391.81;5113279;28;20668;-58
2023/10/17 06:26:22;;;;;;;0.10;0.10;;;;;;;6.05;100.00;99402.94;5113107;28;20193;-57
2023/10/17 06:32:48;;;;;;;0.10;0.10;;;;;;;6.39;100.00;99403.22;5116878;28;20186;-57
2023/10/17 06:35:23;;;;;;;0.10;0.10;;;;;;;6.19;100.00;99405.84;5116435;28;20225;-57
2023/10/17 06:38:10;;;;;;;0.10;0.10;;;;;;;6.18;100.00;99402.38;5115757;28;20264;-58
2023/10/17 06:41:14;;;;;;;0.10;0.10;;;;;;;5.92;100.00;99403.44;5117403;28;20209;-57
2023/10/17 06:44:05;;;;;;;0.10;0.10;;;;;;;6.35;100.00;99416.56;5117423;28;20382;-57
2023/10/17 06:46:55;;;;;;;0.10;0.10;;;;;;;6.80;100.00;99408.44;5117076;28;20198;-57
2023/10/17 06:50:17;;;;;;;0.10;0.10;;;;;;;6.40;100.00;99404.06;5116969;28;20221;-57
2023/10/17 06:53:02;;;;;;;0.10;0.10;;;;;;;6.37;100.00;99405.06;5115576;28;20193;-57
2023/10/17 06:55:52;;;;;;;0.10;0.10;;;;;;;6.30;100.00;99411.50;5116905;28;20199;-58
2023/10/17 06:58:41;;;;;;;0.10;0.10;;;;;;;6.82;100.00;99425.03;5117032;28;20190;-57
2023/10/17 07:01:28;;;;;;;0.10;0.10;;;;;;;6.72;100.00;99421.09;5116663;28;20205;-57
2023/10/17 07:04:18;;;;;;;0.10;0.10;;;;;;;6.54;100.00;99406.94;5116878;28;20198;-58
2023/10/17 07:07:05;;;;;;;0.10;0.10;;;;;;;6.45;100.00;99408.19;5116822;28;20213;-58
2023/10/17 07:10:16;;;;;;;0.07;0.07;;;;;;;6.68;100.00;99399.31;5116714;28;20222;-58
2023/10/17 07:13:35;;;;;;;0.10;0.10;;;;;;;6.95;100.00;99399.88;5116596;28;20691;-58
2023/10/17 07:16:32;;;;;;;0.00;0.00;;;;;;;6.97;100.00;99399.78;5116730;28;20198;-58
2023/10/17 07:22:24;;;;;;;0.10;0.10;;;;;;;7.20;100.00;99396.09;5115502;28;20190;-57
2023/10/17 07:25:18;;;;;;;0.10;0.10;;;;;;;7.65;100.00;99388.66;5116595;28;20190;-58
2023/10/17 07:28:05;;;;;;;0.10;0.10;;;;;;;7.42;100.00;99389.72;5116467;28;20293;-58
2023/10/17 07:30:57;;;;;;;0.10;0.10;;;;;;;7.33;100.00;99392.81;5116149;28;20218;-58
2023/10/17 07:33:47;;;;;;;0.10;0.10;;;;;;;7.58;100.00;99383.75;5116167;28;20225;-58
2023/10/17 07:36:34;;;;;;;0.10;0.10;;;;;;;7.54;100.00;99383.06;5116102;28;20679;-58
2023/10/17 07:39:24;;;;;;;0.10;0.10;;;;;;;7.84;100.00;99390.41;5114521;28;20210;-58
2023/10/17 07:42:23;;;;;;;0.10;0.10;;;;;;;8.02;100.00;99389.50;5116116;28;20258;-58
2023/10/17 07:45:15;;;;;;;0.10;0.10;;;;;;;8.07;100.00;99390.09;5115891;28;20194;-58
2023/10/17 07:48:02;;;;;;;0.10;0.10;;;;;;;8.01;100.00;99393.06;5115939;28;20194;-58
2023/10/17 07:50:54;;;;;;;0.10;0.10;;;;;;;8.23;100.00;99388.41;5115738;28;20282;-58
2023/10/17 07:53:45;;;;;;;0.10;0.10;;;;;;;8.23;100.00;99396.31;5114640;28;20730;-58
2023/10/17 07:56:32;;;;;;;0.10;0.10;;;;;;;8.39;100.00;99395.56;5116010;28;20677;-58
2023/10/17 07:59:30;;;;;;;0.10;0.10;;;;;;;8.83;100.00;99393.25;5115834;28;20190;-58
2023/10/17 08:02:20;;;;;;;0.10;0.10;;;;;;;8.94;100.00;99393.53;5116751;28;20677;-58
2023/10/17 08:05:16;;;;;;;0.10;0.10;;;;;;;9.40;100.00;99391.88;5115846;28;20270;-57
2023/10/17 08:08:08;;;;;;;0.10;0.10;;;;;;;9.37;100.00;99385.94;5114231;28;20232;-58
2023/10/17 08:10:58;;;;;;;0.10;0.10;;;;;;;9.52;100.00;99384.19;5115524;28;20311;-58
2023/10/17 08:13:45;;;;;;;0.10;0.10;;;;;;;9.60;100.00;99381.97;5115617;28;20206;-58
2023/10/17 08:16:32;;;;;;;0.10;0.10;;;;;;;9.79;100.00;99392.38;5115352;28;20664;-58
2023/10/17 08:19:22;;;;;;;0.10;0.10;;;;;;;9.93;100.00;99385.34;5115556;28;20185;-58
2023/10/17 08:22:17;;;;;;;0.10;0.10;;;;;;;10.18;100.00;99381.28;5115522;28;20186;-58
2023/10/17 08:25:13;;;;;;;0.10;0.10;;;;;;;9.99;100.00;99378.84;5115485;28;20198;-58
2023/10/17 08:28:04;;;;;;;0.10;0.10;;;;;;;10.09;100.00;99381.81;5115456;28;20197;-58
2023/10/17 08:30:51;;;;;;;0.10;0.10;;;;;;;10.03;100.00;99389.16;5115010;28;20222;-58
2023/10/17 08:33:44;;;;;;;0.10;0.10;;;;;;;10.02;100.00;99383.94;5114797;28;20226;-58
2023/10/17 08:36:42;;;;;;;0.10;0.10;;;;;;;10.19;100.00;99378.53;5115097;28;20202;-58
2023/10/17 08:42:49;;;;;;;0.10;0.10;;;;;;;10.13;100.00;99392.13;5115099;28;20201;-58
2023/10/17 08:45:39;;;;;;;0.10;0.10;;;;;;;10.48;100.00;99381.28;5114683;28;20202;-58
2023/10/17 08:48:26;;;;;;;0.10;0.10;;;;;;;10.38;100.00;99378.31;5114954;28;20198;-57
2023/10/17 08:51:15;;;;;;;0.10;0.10;;;;;;;10.76;100.00;99376.00;5114094;28;20260;-58
2023/10/17 08:54:18;;;;;;;0.10;0.10;;;;;;;10.81;100.00;99373.94;5113447;28;20190;-58
2023/10/17 08:57:07;;;;;;;0.10;0.10;;;;;;;10.72;100.00;99382.47;5114822;28;20216;-58
2023/10/17 09:03:01;;;;;;;0.10;0.10;;;;;;;10.85;100.00;99372.81;5114623;28;20202;-58
2023/10/17 09:05:58;;;;;;;0.10;0.10;;;;;;;11.04;100.00;99366.34;5114549;28;20325;-58
2023/10/17 09:08:49;;;;;;;0.10;0.10;;;;;;;11.58;100.00;99364.66;5113088;28;20274;-58
2023/10/17 09:11:41;;;;;;;0.10;0.10;;;;;;;11.42;100.00;99370.09;5113868;28;20226;-58
2023/10/17 09:14:35;;;;;;;0.10;0.10;;;;;;;11.86;100.00;99365.50;5114234;28;20228;-58
2023/10/17 09:17:30;;;;;;;0.10;0.10;;;;;;;11.64;100.00;99355.44;5114321;28;20206;-58
2023/10/17 09:20:34;;;;;;;0.10;0.10;;;;;;;11.75;100.00;99356.44;5114524;28;20198;-58
2023/10/17 09:23:26;;;;;;;0.10;0.10;;;;;;;11.71;100.00;99357.59;5112820;28;20260;-58
2023/10/17 09:26:19;;;;;;;0.10;0.10;;;;;;;11.98;100.00;99362.91;5114078;28;20202;-58
2023/10/17 09:29:06;;;;;;;0.10;0.10;;;;;;;12.01;100.00;99357.41;5114057;28;20692;-58
2023/10/17 09:31:53;;;;;;;0.10;0.10;;;;;;;12.51;100.00;99346.94;5113597;28;20222;-58
2023/10/17 09:34:44;;;;;;;0.10;0.10;;;;;;;12.57;100.00;99354.50;5113579;28;20241;-58
2023/10/17 09:37:33;;;;;;;0.10;0.10;;;;;;;12.48;100.00;99358.66;5112293;28;20194;-58
2023/10/17 09:40:27;;;;;;;0.10;0.10;;;;;;;12.60;100.00;99357.78;5114020;28;20248;-58
2023/10/17 09:43:15;;;;;;;0.10;0.10;;;;;;;12.60;100.00;99344.50;5113762;28;20195;-58
2023/10/17 09:46:04;;;;;;;0.10;0.10;;;;;;;12.60;100.00;99344.50;5113588;28;20672;-58
2023/10/17 09:48:52;;;;;;;0.10;0.10;;;;;;;12.96;100.00;99350.88;5113857;28;20300;-57
2023/10/17 09:51:42;;;;;;;0.10;0.10;;;;;;;13.34;98.76;99342.00;5113493;28;20222;-58
2023/10/17 09:54:36;;;;;;;0.10;0.10;;;;;;;12.99;97.31;99349.81;5112056;28;20194;-58
2023/10/17 09:57:25;;;;;;;0.10;0.10;;;;;;;14.01;92.28;99345.84;5113758;28;20190;-58
2023/10/17 10:00:23;;;;;;;0.10;0.10;;;;;;;14.88;84.02;99343.66;5113650;28;20190;-58
2023/10/17 10:03:11;;;;;;;0.10;0.10;;;;;;;16.37;73.41;99340.34;5113407;28;20194;-58
2023/10/17 10:06:23;;;;;;;0.10;0.10;;;;;;;17.19;65.67;99330.53;5113451;28;20198;-59
2023/10/17 10:09:30;;;;;;;0.10;0.10;;;;;;;17.71;57.45;99334.75;5112047;28;20193;-58
2023/10/17 10:12:17;;;;;;;0.10;0.10;;;;;;;18.66;54.78;99328.66;5113415;28;20202;-58
2023/10/17 10:15:06;;;;;;;0.10;0.10;;;;;;;19.55;50.73;99320.06;5113448;28;20194;-59
2023/10/17 10:17:53;;;;;;;0.00;0.00;;;;;;;19.19;50.07;99324.50;5113215;28;20194;-59
2023/10/17 10:20:54;;;;;;;0.00;0.00;;;;;;;18.57;52.28;99324.97;5113382;28;20220;-59
2023/10/17 10:23:45;;;;;;;0.10;0.10;;;;;;;18.41;50.82;99322.03;5111591;28;20190;-58
2023/10/17 10:26:36;;;;;;;0.10;0.10;;;;;;;17.62;53.48;99305.25;5113211;28;20194;-59
2023/10/17 10:29:24;;;;;;;0.10;0.10;;;;;;;17.58;54.45;99314.56;5113281;28;20210;-58
2023/10/17 10:32:33;;;;;;;0.00;0.00;;;;;;;16.21;57.19;99316.75;5112912;28;20217;-58
2023/10/17 10:35:19;;;;;;;0.10;0.10;;;;;;;16.57;56.94;99326.13;5112892;28;20252;-58
2023/10/17 10:38:07;;;;;;;0.10;0.10;;;;;;;15.96;60.02;99316.16;5111814;28;20385;-58
2023/10/17 10:40:54;;;;;;;0.10;0.10;;;;;;;17.50;55.55;99304.53;5113032;28;20198;-58
2023/10/17 10:43:43;;;;;;;0.10;0.10;;;;;;;18.42;51.81;99301.44;5112914;28;20198;-58
2023/10/17 10:46:31;;;;;;;0.10;0.10;;;;;;;19.23;49.75;99297.22;5112642;28;20317;-58
2023/10/17 10:49:26;;;;;;;0.10;0.10;;;;;;;19.12;48.64;99289.38;5113069;28;20268;-59
2023/10/17 10:52:12;;;;;;;0.10;0.10;;;;;;;20.12;46.04;99294.59;5112426;28;20217;-59
2023/10/17 10:55:00;;;;;;;0.10;0.10;;;;;;;23.08;39.07;99283.38;5113026;28;20687;-59
2023/10/17 10:57:47;;;;;;;0.10;0.10;;;;;;;24.04;37.49;99285.72;5112906;28;20198;-59
2023/10/17 11:00:36;;;;;;;0.10;0.10;;;;;;;23.72;37.33;99281.38;5112881;28;20304;-59
2023/10/17 11:03:23;;;;;;;0.10;0.10;;;;;;;23.28;37.50;99278.41;5112808;28;20571;-59
2023/10/17 11:06:13;;;;;;;0.10;0.10;;;;;;;22.34;38.69;99273.75;5112923;28;20672;-59
2023/10/17 11:08:59;;;;;;;0.10;0.10;;;;;;;21.08;41.12;99290.00;5111450;28;20255;-59
2023/10/17 11:11:49;;;;;;;0.10;0.10;;;;;;;20.92;41.08;99276.47;5112399;28;20337;-59
2023/10/17 11:14:36;;;;;;;0.10;0.10;;;;;;;19.70;45.87;99283.66;5112861;28;20210;-59
2023/10/17 11:17:26;;;;;;;0.10;0.10;;;;;;;20.82;43.76;99268.50;5116667;28;20194;-59
2023/10/17 11:20:17;;;;;;;0.03;0.03;;;;;;;22.64;41.06;99259.53;5116656;28;20675;-59
2023/10/17 11:23:07;;;;;;;0.10;0.10;;;;;;;24.21;39.78;99262.03;5115187;28;20203;-59
2023/10/17 11:25:57;;;;;;;0.00;0.00;;;;;;;25.58;36.15;99256.09;5116478;28;20199;-60
2023/10/17 11:28:46;;;;;;;0.00;0.00;;;;;;;25.54;34.83;99241.19;5116515;28;20259;-60
2023/10/17 11:31:33;;;;;;;0.03;0.03;;;;;;;28.02;31.51;99236.88;5116297;28;20344;-60
2023/10/17 11:34:31;;;;;;;0.10;0.10;;;;;;;28.08;30.88;99232.47;5116165;28;20696;-60
2023/10/17 11:37:21;;;;;;;0.00;0.00;;;;;;;28.10;31.37;99233.94;5115146;28;20210;-60
2023/10/17 11:40:26;;;;;;;0.00;0.00;;;;;;;29.79;29.35;99228.41;5116126;28;20198;-60
2023/10/17 11:43:18;;;;;;;0.00;0.00;;;;;;;28.31;31.68;99223.91;5115928;28;20273;-60
2023/10/17 11:46:12;;;;;;;0.00;0.00;;;;;;;29.80;30.15;99223.78;5116050;28;20214;-57
2023/10/17 11:49:20;;;;;;;0.00;0.00;;;;;;;29.25;30.73;99224.31;5115881;28;20274;-58
2023/10/17 11:52:12;;;;;;;0.00;0.00;;;;;;;27.77;31.72;99217.56;5115894;28;20218;-57
2023/10/17 11:55:01;;;;;;;0.00;0.00;;;;;;;30.63;28.81;99213.44;5115897;28;20694;-58
2023/10/17 11:57:51;;;;;;;0.00;0.00;;;;;;;31.12;27.12;99219.00;5115767;28;20194;-58
2023/10/17 12:00:41;;;;;;;0.00;0.00;;;;;;;30.03;28.41;99215.03;5115771;28;20198;-58
2023/10/17 12:03:28;;;;;;;0.00;0.00;;;;;;;31.57;27.81;99209.34;5115667;28;20202;-58
2023/10/17 12:06:16;;;;;;;0.00;0.00;;;;;;;31.06;27.69;99196.09;5115445;28;20267;-58
2023/10/17 12:09:17;;;;;;;0.00;0.00;;;;;;;30.30;28.93;99201.97;5114106;28;20232;-58
2023/10/17 12:12:06;;;;;;;0.00;0.00;;;;;;;30.33;28.41;99205.09;5115189;28;20213;-58
2023/10/17 12:14:53;;;;;;;0.00;0.00;;;;;;;29.46;29.57;99201.31;5115493;28;20252;-58
2023/10/17 12:17:40;;;;;;;0.00;0.00;;;;;;;31.51;27.03;99193.84;5115201;28;20206;-58
2023/10/17 12:20:27;;;;;;;0.00;0.00;;;;;;;32.16;26.27;99195.81;5115050;28;20322;-58
2023/10/17 12:23:14;;;;;;;0.00;0.00;;;;;;;30.34;26.77;99195.84;5114014;28;20198;-57
2023/10/17 12:26:08;;;;;;;0.00;0.00;;;;;;;30.98;26.10;99199.16;5114610;28;20238;-58
2023/10/17 12:28:55;;;;;;;0.00;0.00;;;;;;;30.78;26.84;99186.53;5115278;28;20299;-58
2023/10/17 12:31:43;;;;;;;0.00;0.00;;;;;;;32.49;25.01;99177.94;5115068;28;20222;-58
2023/10/17 12:34:30;;;;;;;0.00;0.00;;;;;;;30.73;26.67;99180.94;5114548;28;20390;-58
2023/10/17 12:37:17;;;;;;;0.00;0.00;;;;;;;31.92;25.23;99175.75;5113247;28;20244;-58
2023/10/17 12:40:18;;;;;;;0.00;0.00;;;;;;;31.19;25.37;99174.06;5115061;28;20305;-58
2023/10/17 12:43:08;;;;;;;0.00;0.00;;;;;;;29.77;27.21;99170.47;5114922;28;20189;-57
2023/10/17 12:45:55;;;;;;;0.00;0.00;;;;;;;29.57;26.91;99172.50;5114864;28;20197;-57
2023/10/17 12:48:42;;;;;;;0.00;0.00;;;;;;;32.74;25.03;99167.53;5114859;28;20256;-57
2023/10/17 12:51:29;;;;;;;0.00;0.00;;;;;;;33.24;24.29;99172.41;5114804;28;20214;-57
2023/10/17 12:54:17;;;;;;;0.00;0.00;;;;;;;33.04;24.39;99167.34;5113639;28;20194;-57
2023/10/17 12:57:06;;;;;;;0.00;0.00;;;;;;;34.30;23.00;99161.63;5114750;28;20208;-57
2023/10/17 12:59:57;;;;;;;0.00;0.00;;;;;;;35.14;22.22;99164.16;5114912;28;20194;-57
2023/10/17 13:02:44;;;;;;;0.00;0.00;;;;;;;35.19;22.65;99162.28;5114621;28;20264;-57
2023/10/17 13:05:31;;;;;;;0.00;0.00;;;;;;;34.86;22.81;99157.75;5114735;28;20194;-57
2023/10/17 13:08:18;;;;;;;0.00;0.00;;;;;;;35.32;22.76;99152.78;5113188;28;20198;-57
2023/10/17 13:11:06;;;;;;;0.00;0.00;;;;;;;33.42;23.66;99155.75;5114651;28;20194;-58
2023/10/17 13:13:54;;;;;;;0.00;0.00;;;;;;;33.35;23.79;99152.28;5114433;28;20718;-58
2023/10/17 13:16:43;;;;;;;0.00;0.00;;;;;;;31.13;25.83;99158.56;5114483;28;20186;-58
2023/10/17 13:19:33;;;;;;;0.00;0.00;;;;;;;33.59;23.49;99151.13;5114226;28;20684;-58
2023/10/17 13:22:21;;;;;;;0.00;0.00;;;;;;;35.40;22.10;99148.75;5112857;28;20182;-57
2023/10/17 13:25:11;;;;;;;0.00;0.00;;;;;;;33.58;23.33;99145.84;5114011;28;20202;-57
2023/10/17 13:27:58;;;;;;;0.00;0.00;;;;;;;31.95;24.96;99142.41;5114189;28;20186;-57
2023/10/17 13:30:45;;;;;;;0.00;0.00;;;;;;;32.55;24.39;99149.56;5113800;28;20542;-57
2023/10/17 13:33:33;;;;;;;0.00;0.00;;;;;;;30.72;25.29;99138.25;5113241;28;20245;-57
2023/10/17 13:36:21;;;;;;;0.00;0.00;;;;;;;33.50;23.25;99129.81;5114095;28;20272;-57
2023/10/17 13:39:08;;;;;;;0.00;0.00;;;;;;;33.98;23.14;99129.25;5112183;28;20288;-58
2023/10/17 13:41:55;;;;;;;0.00;0.00;;;;;;;34.56;22.23;99125.16;5113535;28;20206;-58
2023/10/17 13:44:42;;;;;;;0.00;0.00;;;;;;;34.91;23.03;99130.28;5113962;28;20194;-58
2023/10/17 13:47:29;;;;;;;0.00;0.00;;;;;;;33.36;23.39;99128.44;5113937;28;20193;-57
2023/10/17 13:50:18;;;;;;;0.00;0.00;;;;;;;32.65;23.74;99125.91;5113656;28;20668;-57
2023/10/17 13:53:09;;;;;;;0.00;0.00;;;;;;;30.93;25.21;99125.97;5112297;28;20229;-57
2023/10/17 13:55:56;;;;;;;0.00;0.00;;;;;;;33.13;23.59;99119.22;5113443;28;20670;-57
2023/10/17 13:58:44;;;;;;;0.00;0.00;;;;;;;33.01;23.48;99112.94;5113474;28;20719;-57
2023/10/17 14:01:33;;;;;;;0.00;0.00;;;;;;;29.99;26.05;99110.78;5113588;28;20201;-57
2023/10/17 14:04:22;;;;;;;0.00;0.00;;;;;;;31.39;24.67;99112.75;5113509;28;20641;-57
2023/10/17 14:07:12;;;;;;;0.00;0.00;;;;;;;30.01;26.29;99102.38;5112595;28;20197;-57
2023/10/17 14:09:59;;;;;;;0.00;0.00;;;;;;;29.84;26.34;99092.03;5113507;28;20194;-57
2023/10/17 14:12:47;;;;;;;0.00;0.00;;;;;;;31.32;25.33;99112.81;5113317;28;20221;-57
2023/10/17 14:15:34;;;;;;;0.00;0.00;;;;;;;32.91;23.94;99105.34;5113330;28;20198;-58
2023/10/17 14:18:29;;;;;;;0.00;0.00;;;;;;;34.64;22.64;99099.09;5113503;28;20703;-57
2023/10/17 14:21:34;;;;;;;0.00;0.00;;;;;;;34.28;23.31;99089.53;5113197;28;20205;-57
2023/10/17 14:24:29;;;;;;;0.00;0.00;;;;;;;33.31;23.64;99090.72;5111703;28;20186;-57
2023/10/17 14:27:20;;;;;;;0.00;0.00;;;;;;;34.20;22.53;99085.31;5112776;28;20236;-57
2023/10/17 14:30:11;;;;;;;0.00;0.00;;;;;;;31.33;25.55;99087.13;5113238;28;20190;-57
2023/10/17 14:32:58;;;;;;;0.00;0.00;;;;;;;28.13;27.57;99080.97;5112715;28;20229;-57
2023/10/17 14:35:47;;;;;;;0.00;0.00;;;;;;;30.61;25.96;99081.56;5112471;28;20205;-57
2023/10/17 14:38:34;;;;;;;0.00;0.00;;;;;;;30.78;25.56;99074.41;5111579;28;20197;-57
2023/10/17 14:41:24;;;;;;;0.00;0.00;;;;;;;30.31;25.65;99075.19;5113163;28;20198;-57
2023/10/17 14:44:10;;;;;;;0.00;0.00;;;;;;;30.63;24.91;99076.69;5112535;28;20597;-57